• Join FlightAware (Why Join?)
  • Login
  • US Flag 
02:07AM EDT


 

Airport Tracker/Info


-or-


 

Live Flight TrackerFlight Track Log ✈ N95155 ✈ 18-Jun-2013 ✈ C20 - C20

Flight Track Log - Related Links

Times and Time Zones

All times are in EDT time to prevent confusion due to time zone crossing. See the N95155 flight status page for this flight to view local times or setup timezone preferences in your user account.

Time Position Orientation Groundspeed Altitude Reporting Facility
EDT Latitude Longitude Course Direction KTS MPH feet Rate Location/Type
10:38AM 41.9628 -86.3186 46° Northeast 75 86 2,100  Level Chicago Center
10:39AM 41.9806 -86.3039 32° Northeast 77 89 2,600 420 Climbing Chicago Center
10:40AM 41.9636 -86.2944 157° South 94 108 3,000 360 Climbing Chicago Center
10:41AM 41.9364 -86.3022 192° South 98 113 3,400 360 Climbing Chicago Center
10:42AM 41.9511 -86.3679 45° Northeast  Level Estimated
10:42AM 41.9111 -86.3125 197° South 96 110 3,800  Level Chicago Center
10:43AM 41.9511 -86.3679 46° Northeast  Level Estimated
10:43AM 41.8781 -86.3075 174° South 99 114 4,000  Level Chicago Center
10:44AM 41.8478 -86.3067 179° South 106 122 4,100  Climbing Chicago Center
10:45AM 41.8156 -86.3050 178° South 113 130 4,000 -60 Descending Chicago Center
10:46AM 41.7850 -86.3164 196° South 114 131 4,000 -60 Level Chicago Center
10:47AM 41.7536 -86.3242 190° South 114 131 3,900  Descending Chicago Center
10:48AM 41.7219 -86.3308 189° South 115 132 4,000  Climbing Chicago Center
10:49AM 41.6925 -86.3550 212° Southwest 110 127 4,000  Level Chicago Center
10:50AM 41.6689 -86.3769 215° Southwest 106 122 4,000  Level Chicago Center
10:51AM 41.6439 -86.3975 212° Southwest 105 121 4,100  Climbing Chicago Center
10:52AM 41.6206 -86.4200 216° Southwest 105 121 4,100  Level Chicago Center
10:53AM 41.5967 -86.4475 221° Southwest 108 124 4,100  Level Chicago Center
10:54AM 41.5778 -86.4764 229° Southwest 109 125 4,100 -60 Level Chicago Center
10:55AM 41.5433 -86.4972 204° Southwest 114 131 4,000 -60 Descending Chicago Center
10:56AM 41.5144 -86.5128 202° Southwest 114 131 4,000  Level Chicago Center
10:57AM 41.4839 -86.5269 199° South 115 132 4,000  Level Chicago Center
10:58AM 41.4569 -86.5442 206° Southwest 114 131 4,000 -60 Level Chicago Center
10:59AM 41.4306 -86.5683 214° Southwest 114 131 3,900 -300 Descending Chicago Center
11:00AM 41.4083 -86.5964 223° Southwest 113 130 3,500 -420 Descending Chicago Center
11:01AM 41.3758 -86.6214 210° Southwest 111 128 3,100 -300 Descending Chicago Center
11:02AM 41.3456 -86.6356 199° South 113 130 3,000  Descending Chicago Center
11:03AM 41.3181 -86.6483 199° South 107 123 3,100 60 Climbing Chicago Center
11:04AM 41.2894 -86.6439 173° South 106 122 3,200  Climbing Chicago Center
11:05AM 41.2603 -86.6325 164° South 109 125 3,100 -300 Descending Chicago Center
11:06AM 41.2258 -86.6208 166° South 109 125 2,600 -540 Descending Chicago Center